sensor_id;sensor_type;location;lat;lon;timestamp;temperature;humidity
76996;DHT22;65929;49.062;10.338;2023-07-13T00:00:49;18.50;63.80
76996;DHT22;65929;49.062;10.338;2023-07-13T00:01:53;18.50;63.80
76996;DHT22;65929;49.062;10.338;2023-07-13T00:02:54;18.40;63.70
76996;DHT22;65929;49.062;10.338;2023-07-13T00:04:00;18.40;63.80
76996;DHT22;65929;49.062;10.338;2023-07-13T00:05:01;18.40;63.90
76996;DHT22;65929;49.062;10.338;2023-07-13T00:06:03;18.40;63.90
76996;DHT22;65929;49.062;10.338;2023-07-13T00:07:07;18.40;64.00
76996;DHT22;65929;49.062;10.338;2023-07-13T00:08:08;18.40;63.70
76996;DHT22;65929;49.062;10.338;2023-07-13T00:09:09;18.40;64.20
76996;DHT22;65929;49.062;10.338;2023-07-13T00:10:10;18.30;64.20
76996;DHT22;65929;49.062;10.338;2023-07-13T00:11:14;18.30;64.40
76996;DHT22;65929;49.062;10.338;2023-07-13T00:12:27;18.20;64.30
76996;DHT22;65929;49.062;10.338;2023-07-13T00:13:28;18.20;65.00
76996;DHT22;65929;49.062;10.338;2023-07-13T00:14:29;18.20;65.20
76996;DHT22;65929;49.062;10.338;2023-07-13T00:15:31;18.10;65.10
76996;DHT22;65929;49.062;10.338;2023-07-13T00:16:34;18.10;64.90
76996;DHT22;65929;49.062;10.338;2023-07-13T00:17:35;18.10;65.50
76996;DHT22;65929;49.062;10.338;2023-07-13T00:18:36;18.00;65.30
76996;DHT22;65929;49.062;10.338;2023-07-13T00:19:39;18.00;65.60
76996;DHT22;65929;49.062;10.338;2023-07-13T00:20:40;18.00;65.20
76996;DHT22;65929;49.062;10.338;2023-07-13T00:21:42;18.00;65.80
76996;DHT22;65929;49.062;10.338;2023-07-13T00:22:43;18.00;65.50
76996;DHT22;65929;49.062;10.338;2023-07-13T00:23:44;17.90;65.70
76996;DHT22;65929;49.062;10.338;2023-07-13T00:24:45;17.80;65.90
76996;DHT22;65929;49.062;10.338;2023-07-13T00:25:46;17.80;66.10
76996;DHT22;65929;49.062;10.338;2023-07-13T00:26:47;17.80;66.10
76996;DHT22;65929;49.062;10.338;2023-07-13T00:27:49;17.80;66.00
76996;DHT22;65929;49.062;10.338;2023-07-13T00:28:50;17.70;66.30
76996;DHT22;65929;49.062;10.338;2023-07-13T00:29:52;17.60;66.60
76996;DHT22;65929;49.062;10.338;2023-07-13T00:30:56;17.60;66.90
76996;DHT22;65929;49.062;10.338;2023-07-13T00:31:57;17.50;66.70
76996;DHT22;65929;49.062;10.338;2023-07-13T00:32:58;17.50;67.20
76996;DHT22;65929;49.062;10.338;2023-07-13T00:34:00;17.50;67.20
76996;DHT22;65929;49.062;10.338;2023-07-13T00:35:02;17.40;67.80
76996;DHT22;65929;49.062;10.338;2023-07-13T00:36:05;17.30;68.00
76996;DHT22;65929;49.062;10.338;2023-07-13T00:37:07;17.20;68.70
76996;DHT22;65929;49.062;10.338;2023-07-13T00:38:08;17.20;69.00
76996;DHT22;65929;49.062;10.338;2023-07-13T00:39:09;17.10;69.20
76996;DHT22;65929;49.062;10.338;2023-07-13T00:40:11;17.10;69.00
76996;DHT22;65929;49.062;10.338;2023-07-13T00:41:13;17.10;68.80
76996;DHT22;65929;49.062;10.338;2023-07-13T00:42:14;17.10;69.00
76996;DHT22;65929;49.062;10.338;2023-07-13T00:43:16;17.10;68.90
76996;DHT22;65929;49.062;10.338;2023-07-13T00:44:19;17.10;69.00
76996;DHT22;65929;49.062;10.338;2023-07-13T00:46:59;17.00;69.00
76996;DHT22;65929;49.062;10.338;2023-07-13T00:48:00;17.00;69.10
76996;DHT22;65929;49.062;10.338;2023-07-13T00:49:04;17.00;69.40
76996;DHT22;65929;49.062;10.338;2023-07-13T00:50:08;17.00;69.00
76996;DHT22;65929;49.062;10.338;2023-07-13T00:51:10;17.00;69.10
76996;DHT22;65929;49.062;10.338;2023-07-13T00:52:11;16.90;69.20
76996;DHT22;65929;49.062;10.338;2023-07-13T00:53:13;16.90;69.90
76996;DHT22;65929;49.062;10.338;2023-07-13T00:54:17;16.90;69.70
76996;DHT22;65929;49.062;10.338;2023-07-13T00:55:19;16.90;69.50
76996;DHT22;65929;49.062;10.338;2023-07-13T00:56:21;16.90;69.60
76996;DHT22;65929;49.062;10.338;2023-07-13T00:57:23;16.80;69.40
76996;DHT22;65929;49.062;10.338;2023-07-13T00:58:25;16.90;69.80
76996;DHT22;65929;49.062;10.338;2023-07-13T00:59:27;16.90;69.10
76996;DHT22;65929;49.062;10.338;2023-07-13T01:00:29;16.90;69.10
76996;DHT22;65929;49.062;10.338;2023-07-13T01:01:30;16.90;69.00
76996;DHT22;65929;49.062;10.338;2023-07-13T01:02:31;16.90;69.30
76996;DHT22;65929;49.062;10.338;2023-07-13T01:03:34;16.90;69.00
76996;DHT22;65929;49.062;10.338;2023-07-13T01:04:36;16.90;69.40
76996;DHT22;65929;49.062;10.338;2023-07-13T01:05:38;16.90;68.80
76996;DHT22;65929;49.062;10.338;2023-07-13T01:06:40;16.90;68.60
76996;DHT22;65929;49.062;10.338;2023-07-13T01:07:43;16.90;68.20
76996;DHT22;65929;49.062;10.338;2023-07-13T01:08:44;16.90;68.20
76996;DHT22;65929;49.062;10.338;2023-07-13T01:09:45;16.90;68.00
76996;DHT22;65929;49.062;10.338;2023-07-13T01:10:53;17.00;67.90
76996;DHT22;65929;49.062;10.338;2023-07-13T01:11:55;17.00;67.70
76996;DHT22;65929;49.062;10.338;2023-07-13T01:12:56;17.00;67.80
76996;DHT22;65929;49.062;10.338;2023-07-13T01:13:57;17.00;67.40
76996;DHT22;65929;49.062;10.338;2023-07-13T01:14:58;17.00;67.30
76996;DHT22;65929;49.062;10.338;2023-07-13T01:16:05;17.00;67.00
76996;DHT22;65929;49.062;10.338;2023-07-13T01:17:12;17.00;66.90
76996;DHT22;65929;49.062;10.338;2023-07-13T01:18:16;17.00;66.90
76996;DHT22;65929;49.062;10.338;2023-07-13T01:19:26;17.00;66.90
76996;DHT22;65929;49.062;10.338;2023-07-13T01:20:38;17.00;66.70
76996;DHT22;65929;49.062;10.338;2023-07-13T01:21:40;17.00;66.60
76996;DHT22;65929;49.062;10.338;2023-07-13T01:22:43;17.00;66.70
76996;DHT22;65929;49.062;10.338;2023-07-13T01:23:44;17.00;66.60
76996;DHT22;65929;49.062;10.338;2023-07-13T01:24:47;17.00;66.70
76996;DHT22;65929;49.062;10.338;2023-07-13T01:25:48;17.00;66.70
76996;DHT22;65929;49.062;10.338;2023-07-13T01:26:49;17.00;66.70
76996;DHT22;65929;49.062;10.338;2023-07-13T01:27:50;17.00;66.80
76996;DHT22;65929;49.062;10.338;2023-07-13T01:28:51;17.00;67.00
76996;DHT22;65929;49.062;10.338;2023-07-13T01:29:53;17.00;66.60
76996;DHT22;65929;49.062;10.338;2023-07-13T01:31:03;17.00;66.70
76996;DHT22;65929;49.062;10.338;2023-07-13T01:32:05;17.00;66.90
76996;DHT22;65929;49.062;10.338;2023-07-13T01:33:08;17.00;67.10
76996;DHT22;65929;49.062;10.338;2023-07-13T01:34:10;16.90;67.10
76996;DHT22;65929;49.062;10.338;2023-07-13T01:35:11;16.90;67.00
76996;DHT22;65929;49.062;10.338;2023-07-13T01:36:13;16.90;67.00
76996;DHT22;65929;49.062;10.338;2023-07-13T01:37:15;16.90;66.80
76996;DHT22;65929;49.062;10.338;2023-07-13T01:38:18;16.90;67.10
76996;DHT22;65929;49.062;10.338;2023-07-13T01:39:20;16.90;67.10
76996;DHT22;65929;49.062;10.338;2023-07-13T01:40:21;16.90;66.90
76996;DHT22;65929;49.062;10.338;2023-07-13T01:41:22;16.90;67.10
76996;DHT22;65929;49.062;10.338;2023-07-13T01:42:23;16.90;67.10
76996;DHT22;65929;49.062;10.338;2023-07-13T01:43:24;16.90;67.20
76996;DHT22;65929;49.062;10.338;2023-07-13T01:44:25;16.90;67.10
76996;DHT22;65929;49.062;10.338;2023-07-13T01:45:26;16.90;67.10
76996;DHT22;65929;49.062;10.338;2023-07-13T01:46:27;16.80;67.20
76996;DHT22;65929;49.062;10.338;2023-07-13T01:47:28;16.80;67.10
76996;DHT22;65929;49.062;10.338;2023-07-13T01:48:31;16.80;67.20
76996;DHT22;65929;49.062;10.338;2023-07-13T01:49:32;16.80;67.10
76996;DHT22;65929;49.062;10.338;2023-07-13T01:50:33;16.80;67.10
76996;DHT22;65929;49.062;10.338;2023-07-13T01:51:35;16.80;67.00
76996;DHT22;65929;49.062;10.338;2023-07-13T01:52:37;16.80;67.50
76996;DHT22;65929;49.062;10.338;2023-07-13T01:53:38;16.80;67.20
76996;DHT22;65929;49.062;10.338;2023-07-13T01:54:39;16.70;66.90
76996;DHT22;65929;49.062;10.338;2023-07-13T01:55:41;16.80;67.00
76996;DHT22;65929;49.062;10.338;2023-07-13T01:56:42;16.80;66.80
76996;DHT22;65929;49.062;10.338;2023-07-13T01:57:43;16.80;66.80
76996;DHT22;65929;49.062;10.338;2023-07-13T01:58:45;16.80;66.50
76996;DHT22;65929;49.062;10.338;2023-07-13T01:59:46;16.80;66.60
76996;DHT22;65929;49.062;10.338;2023-07-13T02:00:48;16.80;66.20
76996;DHT22;65929;49.062;10.338;2023-07-13T02:01:50;16.90;65.90
76996;DHT22;65929;49.062;10.338;2023-07-13T02:02:51;16.90;65.60
76996;DHT22;65929;49.062;10.338;2023-07-13T02:03:52;16.90;65.30
76996;DHT22;65929;49.062;10.338;2023-07-13T02:04:53;16.90;65.30
76996;DHT22;65929;49.062;10.338;2023-07-13T02:05:54;16.90;65.30
76996;DHT22;65929;49.062;10.338;2023-07-13T02:06:55;16.90;65.20
76996;DHT22;65929;49.062;10.338;2023-07-13T02:07:57;16.90;65.30
76996;DHT22;65929;49.062;10.338;2023-07-13T02:08:59;16.90;65.00
76996;DHT22;65929;49.062;10.338;2023-07-13T02:10:00;16.90;65.30
76996;DHT22;65929;49.062;10.338;2023-07-13T02:11:03;16.90;65.50
76996;DHT22;65929;49.062;10.338;2023-07-13T02:12:05;16.80;65.40
76996;DHT22;65929;49.062;10.338;2023-07-13T02:13:07;16.80;65.30
76996;DHT22;65929;49.062;10.338;2023-07-13T02:14:08;16.80;65.50
76996;DHT22;65929;49.062;10.338;2023-07-13T02:15:10;16.80;65.50
76996;DHT22;65929;49.062;10.338;2023-07-13T02:16:11;16.80;65.60
76996;DHT22;65929;49.062;10.338;2023-07-13T02:17:12;16.80;65.70
76996;DHT22;65929;49.062;10.338;2023-07-13T02:18:13;16.80;65.70
76996;DHT22;65929;49.062;10.338;2023-07-13T02:19:17;16.80;65.70
76996;DHT22;65929;49.062;10.338;2023-07-13T02:20:18;16.80;65.60
76996;DHT22;65929;49.062;10.338;2023-07-13T02:21:19;16.70;65.80
76996;DHT22;65929;49.062;10.338;2023-07-13T02:22:21;16.70;65.70
76996;DHT22;65929;49.062;10.338;2023-07-13T02:23:23;16.70;66.00
76996;DHT22;65929;49.062;10.338;2023-07-13T02:24:24;16.60;65.90
76996;DHT22;65929;49.062;10.338;2023-07-13T02:25:25;16.60;66.00
76996;DHT22;65929;49.062;10.338;2023-07-13T02:26:27;16.60;66.10
76996;DHT22;65929;49.062;10.338;2023-07-13T02:27:28;16.60;66.30
76996;DHT22;65929;49.062;10.338;2023-07-13T02:28:29;16.50;66.30
76996;DHT22;65929;49.062;10.338;2023-07-13T02:29:30;16.50;66.50
76996;DHT22;65929;49.062;10.338;2023-07-13T02:30:31;16.50;66.50
76996;DHT22;65929;49.062;10.338;2023-07-13T02:31:32;16.50;66.40
76996;DHT22;65929;49.062;10.338;2023-07-13T02:32:33;16.40;66.50
76996;DHT22;65929;49.062;10.338;2023-07-13T02:33:36;16.40;66.70
76996;DHT22;65929;49.062;10.338;2023-07-13T02:34:37;16.40;66.90
76996;DHT22;65929;49.062;10.338;2023-07-13T02:35:38;16.40;67.10
76996;DHT22;65929;49.062;10.338;2023-07-13T02:36:39;16.30;67.20
76996;DHT22;65929;49.062;10.338;2023-07-13T02:37:41;16.20;67.20
76996;DHT22;65929;49.062;10.338;2023-07-13T02:38:43;16.20;67.40
76996;DHT22;65929;49.062;10.338;2023-07-13T02:39:44;16.20;67.50
76996;DHT22;65929;49.062;10.338;2023-07-13T02:40:46;16.10;67.70
76996;DHT22;65929;49.062;10.338;2023-07-13T02:41:47;16.10;67.70
76996;DHT22;65929;49.062;10.338;2023-07-13T02:42:49;16.10;67.70
76996;DHT22;65929;49.062;10.338;2023-07-13T02:43:50;16.00;67.90
76996;DHT22;65929;49.062;10.338;2023-07-13T02:44:51;16.00;68.00
76996;DHT22;65929;49.062;10.338;2023-07-13T02:45:52;16.00;68.00
76996;DHT22;65929;49.062;10.338;2023-07-13T02:46:53;16.00;68.20
76996;DHT22;65929;49.062;10.338;2023-07-13T02:47:54;16.00;68.20
76996;DHT22;65929;49.062;10.338;2023-07-13T02:48:55;16.00;68.40
76996;DHT22;65929;49.062;10.338;2023-07-13T02:49:56;16.00;68.40
76996;DHT22;65929;49.062;10.338;2023-07-13T02:50:57;16.00;68.40
76996;DHT22;65929;49.062;10.338;2023-07-13T02:51:58;16.00;68.60
76996;DHT22;65929;49.062;10.338;2023-07-13T02:52:59;15.90;68.60
76996;DHT22;65929;49.062;10.338;2023-07-13T02:54:01;15.90;68.60
76996;DHT22;65929;49.062;10.338;2023-07-13T02:55:03;15.90;68.70
76996;DHT22;65929;49.062;10.338;2023-07-13T02:56:04;15.80;68.80
76996;DHT22;65929;49.062;10.338;2023-07-13T02:57:06;15.80;68.70
76996;DHT22;65929;49.062;10.338;2023-07-13T02:58:07;15.80;68.70
76996;DHT22;65929;49.062;10.338;2023-07-13T02:59:08;15.80;68.60
76996;DHT22;65929;49.062;10.338;2023-07-13T03:00:10;15.80;68.60
76996;DHT22;65929;49.062;10.338;2023-07-13T03:01:11;15.80;68.60
76996;DHT22;65929;49.062;10.338;2023-07-13T03:02:12;15.80;68.60
76996;DHT22;65929;49.062;10.338;2023-07-13T03:03:14;15.80;68.70
76996;DHT22;65929;49.062;10.338;2023-07-13T03:04:15;15.80;68.70
76996;DHT22;65929;49.062;10.338;2023-07-13T03:05:20;15.80;68.60
76996;DHT22;65929;49.062;10.338;2023-07-13T03:06:21;15.80;68.40
76996;DHT22;65929;49.062;10.338;2023-07-13T03:07:22;15.80;68.50
76996;DHT22;65929;49.062;10.338;2023-07-13T03:08:23;15.80;68.40
76996;DHT22;65929;49.062;10.338;2023-07-13T03:09:26;15.80;68.40
76996;DHT22;65929;49.062;10.338;2023-07-13T03:10:27;15.80;68.20
76996;DHT22;65929;49.062;10.338;2023-07-13T03:11:28;15.80;68.20
76996;DHT22;65929;49.062;10.338;2023-07-13T03:12:29;15.80;68.30
76996;DHT22;65929;49.062;10.338;2023-07-13T03:13:30;15.80;68.20
76996;DHT22;65929;49.062;10.338;2023-07-13T03:14:31;15.80;68.20
76996;DHT22;65929;49.062;10.338;2023-07-13T03:15:32;15.80;68.20
76996;DHT22;65929;49.062;10.338;2023-07-13T03:16:33;15.70;68.40
76996;DHT22;65929;49.062;10.338;2023-07-13T03:17:34;15.70;68.10
76996;DHT22;65929;49.062;10.338;2023-07-13T03:18:35;15.60;68.10
76996;DHT22;65929;49.062;10.338;2023-07-13T03:19:37;15.60;68.20
76996;DHT22;65929;49.062;10.338;2023-07-13T03:20:38;15.60;68.30
76996;DHT22;65929;49.062;10.338;2023-07-13T03:21:39;15.60;68.20
76996;DHT22;65929;49.062;10.338;2023-07-13T03:22:40;15.60;68.20
76996;DHT22;65929;49.062;10.338;2023-07-13T03:23:41;15.60;68.40
76996;DHT22;65929;49.062;10.338;2023-07-13T03:24:43;15.60;68.30
76996;DHT22;65929;49.062;10.338;2023-07-13T03:25:44;15.60;68.40
76996;DHT22;65929;49.062;10.338;2023-07-13T03:26:45;15.60;68.40
76996;DHT22;65929;49.062;10.338;2023-07-13T03:27:46;15.60;68.40
76996;DHT22;65929;49.062;10.338;2023-07-13T03:28:48;15.60;68.20
76996;DHT22;65929;49.062;10.338;2023-07-13T03:29:49;15.60;68.40
76996;DHT22;65929;49.062;10.338;2023-07-13T03:30:59;15.60;68.30
76996;DHT22;65929;49.062;10.338;2023-07-13T03:32:00;15.50;68.30
76996;DHT22;65929;49.062;10.338;2023-07-13T03:33:01;15.50;68.40
76996;DHT22;65929;49.062;10.338;2023-07-13T03:34:03;15.50;68.30
76996;DHT22;65929;49.062;10.338;2023-07-13T03:35:04;15.50;68.20
76996;DHT22;65929;49.062;10.338;2023-07-13T03:36:06;15.50;68.00
76996;DHT22;65929;49.062;10.338;2023-07-13T03:37:09;15.50;68.00
76996;DHT22;65929;49.062;10.338;2023-07-13T03:38:10;15.50;68.10
76996;DHT22;65929;49.062;10.338;2023-07-13T03:39:11;15.50;68.10
76996;DHT22;65929;49.062;10.338;2023-07-13T03:40:13;15.50;68.20
76996;DHT22;65929;49.062;10.338;2023-07-13T03:41:15;15.50;68.10
76996;DHT22;65929;49.062;10.338;2023-07-13T03:42:16;15.50;68.30
76996;DHT22;65929;49.062;10.338;2023-07-13T03:43:17;15.50;68.20
76996;DHT22;65929;49.062;10.338;2023-07-13T03:44:18;15.40;68.20
76996;DHT22;65929;49.062;10.338;2023-07-13T03:45:20;15.50;68.00
76996;DHT22;65929;49.062;10.338;2023-07-13T03:46:20;15.40;68.30
76996;DHT22;65929;49.062;10.338;2023-07-13T03:47:21;15.40;68.00
76996;DHT22;65929;49.062;10.338;2023-07-13T03:48:22;15.50;68.20
76996;DHT22;65929;49.062;10.338;2023-07-13T03:49:24;15.50;68.10
76996;DHT22;65929;49.062;10.338;2023-07-13T03:50:25;15.50;67.90
76996;DHT22;65929;49.062;10.338;2023-07-13T03:51:26;15.50;68.10
76996;DHT22;65929;49.062;10.338;2023-07-13T03:52:26;15.40;68.20
76996;DHT22;65929;49.062;10.338;2023-07-13T03:53:27;15.40;68.10
76996;DHT22;65929;49.062;10.338;2023-07-13T03:54:28;15.40;68.30
76996;DHT22;65929;49.062;10.338;2023-07-13T03:55:31;15.40;68.40
76996;DHT22;65929;49.062;10.338;2023-07-13T03:56:32;15.40;68.30
76996;DHT22;65929;49.062;10.338;2023-07-13T03:57:34;15.40;68.40
76996;DHT22;65929;49.062;10.338;2023-07-13T03:58:37;15.40;68.40
76996;DHT22;65929;49.062;10.338;2023-07-13T03:59:38;15.40;68.40
76996;DHT22;65929;49.062;10.338;2023-07-13T04:00:39;15.40;68.30
76996;DHT22;65929;49.062;10.338;2023-07-13T04:01:40;15.40;68.30
76996;DHT22;65929;49.062;10.338;2023-07-13T04:02:41;15.40;68.50
76996;DHT22;65929;49.062;10.338;2023-07-13T04:03:42;15.40;68.30
76996;DHT22;65929;49.062;10.338;2023-07-13T04:04:44;15.40;68.40
76996;DHT22;65929;49.062;10.338;2023-07-13T04:05:45;15.30;68.40
76996;DHT22;65929;49.062;10.338;2023-07-13T04:06:46;15.40;68.20
76996;DHT22;65929;49.062;10.338;2023-07-13T04:07:47;15.40;68.00
76996;DHT22;65929;49.062;10.338;2023-07-13T04:08:50;15.40;67.50
76996;DHT22;65929;49.062;10.338;2023-07-13T04:09:51;15.40;67.60
76996;DHT22;65929;49.062;10.338;2023-07-13T04:10:53;15.40;67.50
76996;DHT22;65929;49.062;10.338;2023-07-13T04:11:54;15.50;67.50
76996;DHT22;65929;49.062;10.338;2023-07-13T04:12:55;15.50;67.70
76996;DHT22;65929;49.062;10.338;2023-07-13T04:13:56;15.50;67.30
76996;DHT22;65929;49.062;10.338;2023-07-13T04:14:57;15.50;67.50
76996;DHT22;65929;49.062;10.338;2023-07-13T04:15:58;15.50;67.20
76996;DHT22;65929;49.062;10.338;2023-07-13T04:16:59;15.50;67.30
76996;DHT22;65929;49.062;10.338;2023-07-13T04:18:00;15.50;67.70
76996;DHT22;65929;49.062;10.338;2023-07-13T04:19:01;15.50;67.40
76996;DHT22;65929;49.062;10.338;2023-07-13T04:20:03;15.50;67.40
76996;DHT22;65929;49.062;10.338;2023-07-13T04:21:04;15.50;68.20
76996;DHT22;65929;49.062;10.338;2023-07-13T04:22:05;15.50;67.40
76996;DHT22;65929;49.062;10.338;2023-07-13T04:23:06;15.50;67.40
76996;DHT22;65929;49.062;10.338;2023-07-13T04:24:07;15.50;67.20
76996;DHT22;65929;49.062;10.338;2023-07-13T04:25:08;15.50;67.30
76996;DHT22;65929;49.062;10.338;2023-07-13T04:26:11;15.50;67.30
76996;DHT22;65929;49.062;10.338;2023-07-13T04:27:12;15.50;67.50
76996;DHT22;65929;49.062;10.338;2023-07-13T04:28:13;15.50;67.60
76996;DHT22;65929;49.062;10.338;2023-07-13T04:29:14;15.50;67.50
76996;DHT22;65929;49.062;10.338;2023-07-13T04:30:16;15.60;67.30
76996;DHT22;65929;49.062;10.338;2023-07-13T04:31:17;15.60;67.30
76996;DHT22;65929;49.062;10.338;2023-07-13T04:32:18;15.60;67.30
76996;DHT22;65929;49.062;10.338;2023-07-13T04:33:19;15.60;67.30
76996;DHT22;65929;49.062;10.338;2023-07-13T04:34:23;15.60;67.00
76996;DHT22;65929;49.062;10.338;2023-07-13T04:35:24;15.60;67.00
76996;DHT22;65929;49.062;10.338;2023-07-13T04:36:26;15.60;66.90
76996;DHT22;65929;49.062;10.338;2023-07-13T04:37:29;15.60;66.80
76996;DHT22;65929;49.062;10.338;2023-07-13T04:38:31;15.70;67.00
76996;DHT22;65929;49.062;10.338;2023-07-13T04:39:33;15.70;66.70
76996;DHT22;65929;49.062;10.338;2023-07-13T04:40:37;15.80;66.70
76996;DHT22;65929;49.062;10.338;2023-07-13T04:41:39;15.80;66.50
76996;DHT22;65929;49.062;10.338;2023-07-13T04:42:40;15.80;66.40
76996;DHT22;65929;49.062;10.338;2023-07-13T04:43:41;15.80;66.00
76996;DHT22;65929;49.062;10.338;2023-07-13T04:44:48;15.80;66.10
76996;DHT22;65929;49.062;10.338;2023-07-13T04:45:50;15.90;65.70
76996;DHT22;65929;49.062;10.338;2023-07-13T04:46:51;16.00;65.80
76996;DHT22;65929;49.062;10.338;2023-07-13T04:47:52;16.00;65.40
76996;DHT22;65929;49.062;10.338;2023-07-13T04:48:53;16.00;65.20
76996;DHT22;65929;49.062;10.338;2023-07-13T04:49:55;16.10;65.10
76996;DHT22;65929;49.062;10.338;2023-07-13T04:50:56;16.10;65.10
76996;DHT22;65929;49.062;10.338;2023-07-13T04:51:57;16.10;65.20
76996;DHT22;65929;49.062;10.338;2023-07-13T04:52:59;16.20;65.10
76996;DHT22;65929;49.062;10.338;2023-07-13T04:53:59;16.20;64.90
76996;DHT22;65929;49.062;10.338;2023-07-13T04:55:01;16.20;64.30
76996;DHT22;65929;49.062;10.338;2023-07-13T04:56:02;16.30;64.00
76996;DHT22;65929;49.062;10.338;2023-07-13T04:57:05;16.40;64.00
76996;DHT22;65929;49.062;10.338;2023-07-13T04:58:09;16.40;64.80
76996;DHT22;65929;49.062;10.338;2023-07-13T04:59:10;16.40;64.30
76996;DHT22;65929;49.062;10.338;2023-07-13T05:00:12;16.40;64.30
76996;DHT22;65929;49.062;10.338;2023-07-13T05:01:13;16.50;63.70
76996;DHT22;65929;49.062;10.338;2023-07-13T05:02:14;16.50;63.60
76996;DHT22;65929;49.062;10.338;2023-07-13T05:03:15;16.60;63.50
76996;DHT22;65929;49.062;10.338;2023-07-13T05:04:16;16.60;63.30
76996;DHT22;65929;49.062;10.338;2023-07-13T05:05:17;16.60;63.20
76996;DHT22;65929;49.062;10.338;2023-07-13T05:06:18;16.70;63.20
76996;DHT22;65929;49.062;10.338;2023-07-13T05:07:19;16.70;63.10
76996;DHT22;65929;49.062;10.338;2023-07-13T05:08:20;16.70;63.00
76996;DHT22;65929;49.062;10.338;2023-07-13T05:09:21;16.70;62.60
76996;DHT22;65929;49.062;10.338;2023-07-13T05:10:23;16.70;62.60
76996;DHT22;65929;49.062;10.338;2023-07-13T05:11:24;16.80;62.70
76996;DHT22;65929;49.062;10.338;2023-07-13T05:12:27;16.80;62.50
76996;DHT22;65929;49.062;10.338;2023-07-13T05:13:28;16.80;62.20
76996;DHT22;65929;49.062;10.338;2023-07-13T05:14:29;16.80;62.10
76996;DHT22;65929;49.062;10.338;2023-07-13T05:15:30;16.80;62.30
76996;DHT22;65929;49.062;10.338;2023-07-13T05:16:31;16.80;62.30
76996;DHT22;65929;49.062;10.338;2023-07-13T05:17:33;16.80;61.70
76996;DHT22;65929;49.062;10.338;2023-07-13T05:18:34;16.80;62.20
76996;DHT22;65929;49.062;10.338;2023-07-13T05:19:35;16.80;62.10
76996;DHT22;65929;49.062;10.338;2023-07-13T05:20:36;16.90;62.50
76996;DHT22;65929;49.062;10.338;2023-07-13T05:21:37;16.90;62.20
76996;DHT22;65929;49.062;10.338;2023-07-13T05:22:38;16.90;62.20
76996;DHT22;65929;49.062;10.338;2023-07-13T05:23:39;16.90;61.40
76996;DHT22;65929;49.062;10.338;2023-07-13T05:24:42;16.90;61.70
76996;DHT22;65929;49.062;10.338;2023-07-13T05:25:43;17.00;61.90
76996;DHT22;65929;49.062;10.338;2023-07-13T05:26:44;17.00;60.70
76996;DHT22;65929;49.062;10.338;2023-07-13T05:27:46;17.00;61.10
76996;DHT22;65929;49.062;10.338;2023-07-13T05:28:48;17.00;61.10
76996;DHT22;65929;49.062;10.338;2023-07-13T05:29:49;17.00;60.40
76996;DHT22;65929;49.062;10.338;2023-07-13T05:30:50;17.00;60.90
76996;DHT22;65929;49.062;10.338;2023-07-13T05:31:51;17.00;60.90
76996;DHT22;65929;49.062;10.338;2023-07-13T05:32:52;17.00;60.70
76996;DHT22;65929;49.062;10.338;2023-07-13T05:33:53;17.00;60.30
76996;DHT22;65929;49.062;10.338;2023-07-13T05:34:54;17.00;60.50
76996;DHT22;65929;49.062;10.338;2023-07-13T05:35:56;17.00;60.40
76996;DHT22;65929;49.062;10.338;2023-07-13T05:36:57;17.10;60.10
76996;DHT22;65929;49.062;10.338;2023-07-13T05:37:58;17.10;60.50
76996;DHT22;65929;49.062;10.338;2023-07-13T05:38:58;17.20;60.40
76996;DHT22;65929;49.062;10.338;2023-07-13T05:40:00;17.20;60.20
76996;DHT22;65929;49.062;10.338;2023-07-13T05:41:01;17.20;60.30
76996;DHT22;65929;49.062;10.338;2023-07-13T05:42:02;17.20;60.30
76996;DHT22;65929;49.062;10.338;2023-07-13T05:43:04;17.20;60.20
76996;DHT22;65929;49.062;10.338;2023-07-13T05:44:05;17.20;60.30
76996;DHT22;65929;49.062;10.338;2023-07-13T05:45:07;17.30;60.10
76996;DHT22;65929;49.062;10.338;2023-07-13T05:46:08;17.40;60.70
76996;DHT22;65929;49.062;10.338;2023-07-13T05:47:09;17.40;60.30
76996;DHT22;65929;49.062;10.338;2023-07-13T05:48:10;17.50;60.00
76996;DHT22;65929;49.062;10.338;2023-07-13T05:49:11;17.50;59.60
76996;DHT22;65929;49.062;10.338;2023-07-13T05:50:12;17.50;59.80
76996;DHT22;65929;49.062;10.338;2023-07-13T05:51:14;17.50;59.20
76996;DHT22;65929;49.062;10.338;2023-07-13T05:52:15;17.50;59.00
76996;DHT22;65929;49.062;10.338;2023-07-13T05:53:16;17.50;59.20
76996;DHT22;65929;49.062;10.338;2023-07-13T05:54:21;17.50;59.10
76996;DHT22;65929;49.062;10.338;2023-07-13T05:55:22;17.60;59.50
76996;DHT22;65929;49.062;10.338;2023-07-13T05:56:23;17.50;58.30
76996;DHT22;65929;49.062;10.338;2023-07-13T05:57:25;17.50;58.80
76996;DHT22;65929;49.062;10.338;2023-07-13T05:58:28;17.50;59.60
76996;DHT22;65929;49.062;10.338;2023-07-13T05:59:29;17.50;59.00
76996;DHT22;65929;49.062;10.338;2023-07-13T06:00:30;17.50;59.10
76996;DHT22;65929;49.062;10.338;2023-07-13T06:01:31;17.50;59.20
76996;DHT22;65929;49.062;10.338;2023-07-13T06:02:32;17.50;59.30
76996;DHT22;65929;49.062;10.338;2023-07-13T06:03:33;17.50;59.60
76996;DHT22;65929;49.062;10.338;2023-07-13T06:04:34;17.50;59.30
76996;DHT22;65929;49.062;10.338;2023-07-13T06:05:36;17.50;58.80
76996;DHT22;65929;49.062;10.338;2023-07-13T06:06:37;17.50;59.00
76996;DHT22;65929;49.062;10.338;2023-07-13T06:07:38;17.60;59.00
76996;DHT22;65929;49.062;10.338;2023-07-13T06:08:39;17.60;59.00
76996;DHT22;65929;49.062;10.338;2023-07-13T06:09:40;17.60;58.40
76996;DHT22;65929;49.062;10.338;2023-07-13T06:10:41;17.60;59.10
76996;DHT22;65929;49.062;10.338;2023-07-13T06:11:42;17.60;57.80
76996;DHT22;65929;49.062;10.338;2023-07-13T06:12:43;17.50;58.20
76996;DHT22;65929;49.062;10.338;2023-07-13T06:13:46;17.50;58.80
76996;DHT22;65929;49.062;10.338;2023-07-13T06:14:47;17.50;58.90
76996;DHT22;65929;49.062;10.338;2023-07-13T06:15:48;17.50;58.50
76996;DHT22;65929;49.062;10.338;2023-07-13T06:16:49;17.50;58.60
76996;DHT22;65929;49.062;10.338;2023-07-13T06:17:50;17.50;58.50
76996;DHT22;65929;49.062;10.338;2023-07-13T06:18:51;17.50;58.50
76996;DHT22;65929;49.062;10.338;2023-07-13T06:19:52;17.40;57.80
76996;DHT22;65929;49.062;10.338;2023-07-13T06:20:53;17.40;58.30
76996;DHT22;65929;49.062;10.338;2023-07-13T06:21:54;17.40;58.50
76996;DHT22;65929;49.062;10.338;2023-07-13T06:22:55;17.40;58.80
76996;DHT22;65929;49.062;10.338;2023-07-13T06:23:56;17.40;59.10
76996;DHT22;65929;49.062;10.338;2023-07-13T06:24:57;17.40;58.70